Time;durP1;ratioP1;P1;durP2;ratioP2;P2;SDS_P1;SDS_P2;PMS_P1;PMS_P2;Temp;Humidity;BMP_temperature;BMP_pressure;BME280_temperature;BME280_humidity;BME280_pressure;Samples;Min_cycle;Max_cycle;Signal;HPM_P1;HPM_P2
2023/04/01 00:00:18;;;;;;;3.88;2.97;;;10.40;99.90;;;;;;6332170;22;20026;-75
2023/04/01 00:02:44;;;;;;;3.80;3.50;;;10.40;99.90;;;;;;6332440;22;20019;-75
2023/04/01 00:05:10;;;;;;;5.60;3.55;;;10.50;99.90;;;;;;6332458;22;20037;-75
2023/04/01 00:07:37;;;;;;;5.47;3.50;;;10.40;99.90;;;;;;6332500;22;20033;-75
2023/04/01 00:10:04;;;;;;;3.80;3.40;;;10.40;99.90;;;;;;6332021;22;20011;-74
2023/04/01 00:12:30;;;;;;;4.18;3.30;;;10.40;99.90;;;;;;6332061;22;20110;-75
2023/04/01 00:14:55;;;;;;;3.97;3.28;;;10.40;99.90;;;;;;6303236;22;20363;-76
2023/04/01 00:17:21;;;;;;;4.38;3.97;;;10.40;99.90;;;;;;6332254;22;20445;-76
2023/04/01 00:19:48;;;;;;;5.85;3.15;;;10.30;99.90;;;;;;6303211;22;20101;-74
2023/04/01 00:22:13;;;;;;;6.28;3.38;;;10.40;99.90;;;;;;6303763;22;20057;-75
2023/04/01 00:24:39;;;;;;;7.18;3.28;;;10.40;99.90;;;;;;6331718;22;20033;-74
2023/04/01 00:27:05;;;;;;;4.88;3.67;;;10.30;99.90;;;;;;6331993;22;20133;-76
2023/04/01 00:29:32;;;;;;;7.00;4.38;;;10.40;99.90;;;;;;6279148;22;20400;-77
2023/04/01 00:31:58;;;;;;;4.38;2.95;;;10.30;99.90;;;;;;6333866;22;20383;-78
2023/04/01 00:34:24;;;;;;;4.43;3.33;;;10.30;99.90;;;;;;6333945;22;20015;-77
2023/04/01 00:36:52;;;;;;;4.70;3.38;;;10.30;99.90;;;;;;6306112;22;20386;-80
2023/04/01 00:39:18;;;;;;;3.38;3.08;;;10.30;99.90;;;;;;6333690;22;20065;-79
2023/04/01 00:41:43;;;;;;;5.45;3.72;;;10.20;99.90;;;;;;6333862;22;20068;-78
2023/04/01 00:44:36;;;;;;;4.47;3.47;;;10.20;99.90;;;;;;6305090;22;20103;-79
2023/04/01 00:47:03;;;;;;;8.18;3.67;;;10.20;99.90;;;;;;6328969;22;20433;-78
2023/04/01 00:49:36;;;;;;;3.05;2.75;;;10.20;99.90;;;;;;6279409;22;20050;-76
2023/04/01 00:52:04;;;;;;;5.90;3.50;;;10.10;99.90;;;;;;6305332;22;20021;-76
2023/04/01 00:54:32;;;;;;;2.97;2.72;;;10.10;99.90;;;;;;6304916;22;20091;-75
2023/04/01 00:57:08;;;;;;;4.95;3.10;;;10.20;99.90;;;;;;6279043;22;20106;-75
2023/04/01 00:59:41;;;;;;;4.13;3.30;;;10.10;99.90;;;;;;6333360;22;20018;-75
2023/04/01 01:02:10;;;;;;;3.85;3.13;;;10.20;99.90;;;;;;6333351;22;20446;-75
2023/04/01 01:04:37;;;;;;;4.80;3.05;;;10.10;99.90;;;;;;6305008;22;20038;-76
2023/04/01 01:07:13;;;;;;;4.53;3.80;;;10.20;99.90;;;;;;6304995;22;20056;-75
2023/04/01 01:09:52;;;;;;;3.80;2.97;;;10.20;99.90;;;;;;6333206;22;20015;-75
2023/04/01 01:12:25;;;;;;;3.20;2.78;;;10.10;99.90;;;;;;6332780;22;20061;-74
2023/04/01 01:15:11;;;;;;;7.28;3.60;;;10.10;99.90;;;;;;6333290;22;20118;-73
2023/04/01 01:17:55;;;;;;;8.77;3.17;;;10.10;99.90;;;;;;6333524;22;20352;-76
2023/04/01 01:20:56;;;;;;;4.50;3.25;;;10.20;99.90;;;;;;6333727;22;20014;-75
2023/04/01 01:23:47;;;;;;;5.82;4.13;;;10.20;99.90;;;;;;6333142;22;20026;-76
2023/04/01 01:26:34;;;;;;;3.92;3.40;;;10.20;99.90;;;;;;6332992;22;20093;-75
2023/04/01 01:29:31;;;;;;;4.85;3.72;;;10.20;99.90;;;;;;6305007;22;20018;-77
2023/04/01 01:32:25;;;;;;;3.55;3.25;;;10.20;99.90;;;;;;6305504;22;20050;-78
2023/04/01 01:35:14;;;;;;;3.60;3.30;;;10.20;99.90;;;;;;6279441;22;20032;-79
2023/04/01 01:37:42;;;;;;;4.57;3.47;;;10.20;99.90;;;;;;6305417;22;20329;-79
2023/04/01 01:40:11;;;;;;;7.30;3.65;;;10.20;99.90;;;;;;6305076;22;20087;-79
2023/04/01 01:42:41;;;;;;;4.30;3.10;;;10.20;99.90;;;;;;6332630;22;20030;-78
2023/04/01 01:45:10;;;;;;;4.35;3.20;;;10.20;99.90;;;;;;6304691;22;20050;-78
2023/04/01 01:47:36;;;;;;;6.28;3.55;;;10.20;99.90;;;;;;6299625;22;20011;-78
2023/04/01 01:50:04;;;;;;;5.78;3.45;;;10.20;99.90;;;;;;6299647;22;20023;-78
2023/04/01 01:52:30;;;;;;;3.90;3.30;;;10.20;99.90;;;;;;6299539;22;20338;-77
2023/04/01 01:54:57;;;;;;;6.45;3.35;;;10.20;99.90;;;;;;6299119;22;20022;-77
2023/04/01 01:57:26;;;;;;;8.18;3.95;;;10.20;99.90;;;;;;6299479;22;20200;-76
2023/04/01 01:59:58;;;;;;;4.82;3.90;;;10.20;99.90;;;;;;6299310;22;20521;-77
2023/04/01 02:02:25;;;;;;;6.82;4.00;;;10.10;99.90;;;;;;6299495;22;20375;-76
2023/04/01 02:04:53;;;;;;;4.25;3.58;;;10.10;99.90;;;;;;6299359;22;20350;-74
2023/04/01 02:07:25;;;;;;;3.35;3.05;;;10.10;99.90;;;;;;6301629;22;20090;-75
2023/04/01 02:09:51;;;;;;;5.18;3.63;;;10.10;99.90;;;;;;6299307;22;20030;-75
2023/04/01 02:12:19;;;;;;;4.60;3.40;;;10.20;99.90;;;;;;6273559;22;20023;-74
2023/04/01 02:15:00;;;;;;;5.88;3.70;;;10.10;99.90;;;;;;6299177;22;20019;-75
2023/04/01 02:17:29;;;;;;;4.65;3.80;;;10.10;99.90;;;;;;6301248;22;20015;-75
2023/04/01 02:20:01;;;;;;;4.78;4.05;;;10.10;99.90;;;;;;6299248;22;20299;-75
2023/04/01 02:22:35;;;;;;;4.65;3.88;;;10.20;99.90;;;;;;6301259;22;20018;-78
2023/04/01 02:25:10;;;;;;;5.22;3.38;;;10.10;99.90;;;;;;6299175;22;20011;-78
2023/04/01 02:27:37;;;;;;;7.68;3.65;;;10.10;99.90;;;;;;6301163;22;20015;-76
2023/04/01 02:30:03;;;;;;;6.30;3.70;;;10.10;99.90;;;;;;6299433;22;20019;-77
2023/04/01 02:32:31;;;;;;;7.85;4.20;;;10.10;99.90;;;;;;6299256;22;20379;-75
2023/04/01 02:34:59;;;;;;;3.83;3.53;;;10.10;99.90;;;;;;6300969;22;20449;-75
2023/04/01 02:37:24;;;;;;;5.78;3.83;;;10.10;99.90;;;;;;6301337;22;20019;-77
2023/04/01 02:39:50;;;;;;;6.82;4.35;;;10.10;99.90;;;;;;6299349;22;20011;-77
2023/04/01 02:42:16;;;;;;;5.40;4.03;;;10.10;99.90;;;;;;6299887;22;20075;-78
2023/04/01 02:44:41;;;;;;;4.47;4.07;;;10.00;99.90;;;;;;6299498;22;20042;-78
2023/04/01 02:47:07;;;;;;;4.18;3.65;;;10.10;99.90;;;;;;6305540;22;20045;-77
2023/04/01 02:49:33;;;;;;;5.55;3.70;;;10.10;99.90;;;;;;6333007;22;20072;-75
2023/04/01 02:51:58;;;;;;;5.65;4.13;;;10.10;99.90;;;;;;6304978;22;20058;-74
2023/04/01 02:54:24;;;;;;;6.40;3.83;;;10.10;99.90;;;;;;6331992;22;20406;-74
2023/04/01 02:56:50;;;;;;;7.38;4.20;;;10.10;99.90;;;;;;6332361;22;20457;-75
2023/04/01 02:59:15;;;;;;;4.50;4.07;;;10.10;99.90;;;;;;6304309;22;20018;-76
2023/04/01 03:01:41;;;;;;;4.35;3.50;;;10.10;99.90;;;;;;6304438;22;20015;-76
2023/04/01 03:04:07;;;;;;;6.05;4.45;;;10.20;99.90;;;;;;6304438;22;20049;-76
2023/04/01 03:06:33;;;;;;;5.40;4.63;;;10.10;99.90;;;;;;6303993;22;20014;-76
2023/04/01 03:08:59;;;;;;;6.85;4.72;;;10.10;99.90;;;;;;6278115;22;20513;-76
2023/04/01 03:11:25;;;;;;;5.47;4.55;;;10.10;99.90;;;;;;6304350;22;20023;-76
2023/04/01 03:13:51;;;;;;;6.15;4.78;;;10.10;99.90;;;;;;6332254;22;20019;-75
2023/04/01 03:16:17;;;;;;;5.22;4.20;;;10.10;99.90;;;;;;6332352;22;20030;-75
2023/04/01 03:18:43;;;;;;;5.07;4.45;;;10.20;99.90;;;;;;6304146;22;20014;-76
2023/04/01 03:21:18;;;;;;;6.35;4.28;;;10.20;99.90;;;;;;6304064;22;20011;-76
2023/04/01 03:23:44;;;;;;;5.75;4.78;;;10.20;99.90;;;;;;6303975;22;20026;-76
2023/04/01 03:26:10;;;;;;;5.72;4.78;;;10.20;99.90;;;;;;6304343;22;20042;-74
2023/04/01 03:28:36;;;;;;;7.05;5.45;;;10.20;99.90;;;;;;6332620;22;20023;-75
2023/04/01 03:31:01;;;;;;;5.68;4.65;;;10.20;99.90;;;;;;6332413;22;20699;-75
2023/04/01 03:33:27;;;;;;;7.05;4.85;;;10.20;99.90;;;;;;6304661;22;20026;-75
2023/04/01 03:35:53;;;;;;;6.20;5.13;;;10.20;99.90;;;;;;6332613;22;20354;-75
2023/04/01 03:38:18;;;;;;;5.70;4.72;;;10.20;99.90;;;;;;6332350;22;20007;-74
2023/04/01 03:40:45;;;;;;;8.35;4.90;;;10.20;99.90;;;;;;6332418;22;20115;-74
2023/04/01 03:43:11;;;;;;;4.82;4.30;;;10.20;99.90;;;;;;6304153;22;20091;-75
2023/04/01 03:45:44;;;;;;;5.75;4.60;;;10.20;99.90;;;;;;6304165;22;20290;-74
2023/04/01 03:48:09;;;;;;;5.68;5.13;;;10.20;99.90;;;;;;6332252;22;20440;-74
2023/04/01 03:50:35;;;;;;;6.50;5.00;;;10.20;99.90;;;;;;6331991;22;20018;-74
2023/04/01 03:53:01;;;;;;;6.30;4.40;;;10.20;99.90;;;;;;6332107;22;20071;-74
2023/04/01 03:55:26;;;;;;;6.35;5.05;;;10.20;99.90;;;;;;6332192;22;20524;-74
2023/04/01 03:57:52;;;;;;;6.68;5.05;;;10.20;99.90;;;;;;6332175;22;20038;-74
2023/04/01 04:00:18;;;;;;;6.35;4.80;;;10.20;99.90;;;;;;6303920;22;20107;-74
2023/04/01 04:02:44;;;;;;;6.53;5.13;;;10.30;99.90;;;;;;6303674;22;20029;-74
2023/04/01 04:05:10;;;;;;;6.78;4.93;;;10.30;99.90;;;;;;6331558;22;20011;-74
2023/04/01 04:07:36;;;;;;;7.97;5.03;;;10.20;99.90;;;;;;6305572;22;20076;-74
2023/04/01 04:10:02;;;;;;;6.05;5.18;;;10.20;99.90;;;;;;6334140;22;20011;-75
2023/04/01 04:12:28;;;;;;;5.30;4.65;;;10.20;99.90;;;;;;6333352;22;20075;-74
2023/04/01 04:14:54;;;;;;;7.93;5.40;;;10.20;99.90;;;;;;6334020;22;20068;-75
2023/04/01 04:17:19;;;;;;;7.40;5.50;;;10.30;99.90;;;;;;6333614;22;20015;-73
2023/04/01 04:19:45;;;;;;;6.72;4.95;;;10.30;99.90;;;;;;6333444;22;20011;-74
2023/04/01 04:22:11;;;;;;;6.03;4.85;;;10.20;99.90;;;;;;6305969;22;20361;-74
2023/04/01 04:24:37;;;;;;;6.80;5.20;;;10.20;99.90;;;;;;6306063;22;20023;-74
2023/04/01 04:27:03;;;;;;;7.53;4.72;;;10.20;99.90;;;;;;6333910;22;20022;-75
2023/04/01 04:29:29;;;;;;;6.78;5.18;;;10.20;99.90;;;;;;6333577;22;20122;-75
2023/04/01 04:31:55;;;;;;;7.10;5.20;;;10.20;99.90;;;;;;6333667;22;20014;-75
2023/04/01 04:34:22;;;;;;;7.13;5.80;;;10.30;99.90;;;;;;6333551;22;20011;-75
2023/04/01 04:36:48;;;;;;;8.65;6.25;;;10.30;99.90;;;;;;6306701;22;20030;-75
2023/04/01 04:39:14;;;;;;;8.75;6.30;;;10.20;99.90;;;;;;6306597;22;20322;-75
2023/04/01 04:41:40;;;;;;;8.98;6.38;;;10.20;99.90;;;;;;6306718;22;20024;-75
2023/04/01 04:44:06;;;;;;;8.75;6.38;;;10.20;99.90;;;;;;6305529;22;20026;-75
2023/04/01 04:46:32;;;;;;;11.20;7.18;;;10.30;99.90;;;;;;6305438;22;20015;-75
2023/04/01 04:48:57;;;;;;;8.50;6.15;;;10.20;99.90;;;;;;6304879;22;20101;-75
2023/04/01 04:51:24;;;;;;;8.48;5.72;;;10.20;99.90;;;;;;6333186;22;20592;-73
2023/04/01 04:53:50;;;;;;;10.93;6.28;;;10.10;99.90;;;;;;6305235;22;20023;-74
2023/04/01 04:56:22;;;;;;;9.93;5.97;;;10.20;99.90;;;;;;6305312;22;20011;-75
2023/04/01 04:58:48;;;;;;;7.20;5.63;;;10.20;99.90;;;;;;6333178;22;20014;-74
2023/04/01 05:01:16;;;;;;;10.02;5.78;;;10.10;99.90;;;;;;6305142;22;20015;-74
2023/04/01 05:03:42;;;;;;;9.05;5.75;;;10.10;99.90;;;;;;6305078;22;20031;-75
2023/04/01 05:06:10;;;;;;;8.25;5.82;;;10.20;99.90;;;;;;6305091;22;20067;-74
2023/04/01 05:08:37;;;;;;;9.43;6.30;;;10.10;99.90;;;;;;6305260;22;20593;-75
2023/04/01 05:11:03;;;;;;;9.60;6.18;;;10.10;99.90;;;;;;6333353;22;20094;-75
2023/04/01 05:13:29;;;;;;;9.40;6.38;;;10.10;99.90;;;;;;6304972;22;20127;-75
2023/04/01 05:15:55;;;;;;;11.00;6.65;;;10.10;99.90;;;;;;6304985;22;20057;-74
2023/04/01 05:18:21;;;;;;;9.27;6.30;;;10.10;99.90;;;;;;6332923;22;20050;-73
2023/04/01 05:20:52;;;;;;;8.27;5.85;;;10.10;99.90;;;;;;6305078;22;20022;-73
2023/04/01 05:23:18;;;;;;;10.80;7.00;;;10.10;99.90;;;;;;6305078;22;20015;-74
2023/04/01 05:25:45;;;;;;;10.30;6.88;;;10.10;99.90;;;;;;6333305;22;20015;-73
2023/04/01 05:28:11;;;;;;;10.10;6.45;;;10.10;99.90;;;;;;6333139;22;20011;-74
2023/04/01 05:30:39;;;;;;;10.25;6.38;;;10.10;99.90;;;;;;6305173;22;20175;-74
2023/04/01 05:33:04;;;;;;;9.68;6.20;;;10.20;99.90;;;;;;6332640;22;20015;-74
2023/04/01 05:35:30;;;;;;;11.13;6.22;;;10.20;99.90;;;;;;6333473;22;20019;-74
2023/04/01 05:37:56;;;;;;;8.65;6.35;;;10.20;99.90;;;;;;6305223;22;20067;-75
2023/04/01 05:40:22;;;;;;;8.20;5.38;;;10.20;99.90;;;;;;6333485;22;20457;-74
2023/04/01 05:42:47;;;;;;;10.38;5.43;;;10.20;99.90;;;;;;6333309;22;20018;-73
2023/04/01 05:45:15;;;;;;;9.07;5.72;;;10.10;99.90;;;;;;6305175;22;20019;-75
2023/04/01 05:47:42;;;;;;;8.48;5.10;;;10.20;99.90;;;;;;6304993;22;20026;-75
2023/04/01 05:50:10;;;;;;;7.28;4.82;;;10.20;99.90;;;;;;6333305;22;20079;-75
2023/04/01 05:52:36;;;;;;;7.38;5.55;;;10.20;99.90;;;;;;6332800;22;20022;-73
2023/04/01 05:55:03;;;;;;;7.22;5.05;;;10.20;99.90;;;;;;6304818;22;20531;-73
2023/04/01 05:57:28;;;;;;;8.40;5.50;;;10.20;99.90;;;;;;6332910;22;20075;-73
2023/04/01 05:59:54;;;;;;;8.13;5.10;;;10.20;99.90;;;;;;6331988;22;20567;-72
2023/04/01 06:02:20;;;;;;;11.25;5.68;;;10.20;99.90;;;;;;6304525;22;20023;-74
2023/04/01 06:04:46;;;;;;;7.82;5.28;;;10.20;99.90;;;;;;6332730;22;20089;-74
2023/04/01 06:07:17;;;;;;;7.38;5.53;;;10.30;99.90;;;;;;6304793;22;20097;-74
2023/04/01 06:09:44;;;;;;;8.85;5.80;;;10.20;99.90;;;;;;6304918;22;20019;-74
2023/04/01 06:12:28;;;;;;;8.77;5.93;;;10.20;99.90;;;;;;6304740;22;20025;-74
2023/04/01 06:15:15;;;;;;;10.77;6.25;;;10.30;99.90;;;;;;6305575;22;20087;-74
2023/04/01 06:18:02;;;;;;;9.65;6.30;;;10.30;99.90;;;;;;6304649;22;20057;-74
2023/04/01 06:20:30;;;;;;;11.63;7.82;;;10.30;99.90;;;;;;6304784;22;20015;-74
2023/04/01 06:23:15;;;;;;;10.63;6.90;;;10.20;99.90;;;;;;6305011;22;20420;-74
2023/04/01 06:25:47;;;;;;;10.73;7.60;;;10.30;99.90;;;;;;6332830;22;20410;-74
2023/04/01 06:28:51;;;;;;;17.17;9.93;;;10.30;99.90;;;;;;6304983;22;20075;-74
2023/04/01 06:31:32;;;;;;;18.90;9.20;;;10.30;99.90;;;;;;6276975;22;20019;-74
2023/04/01 06:34:22;;;;;;;15.35;9.02;;;10.30;99.90;;;;;;6332562;22;20410;-74
2023/04/01 06:37:00;;;;;;;13.90;8.82;;;10.40;99.90;;;;;;6304684;22;20015;-75
2023/04/01 06:39:37;;;;;;;16.40;9.70;;;10.40;99.90;;;;;;6332201;22;20034;-74
2023/04/01 06:42:30;;;;;;;17.60;9.65;;;10.40;99.90;;;;;;6304844;22;20082;-73
2023/04/01 06:45:20;;;;;;;13.68;9.02;;;10.40;99.90;;;;;;6269105;22;20029;-74
2023/04/01 06:48:00;;;;;;;15.80;8.90;;;10.40;99.90;;;;;;6332241;22;20019;-73
2023/04/01 06:50:35;;;;;;;14.10;8.98;;;10.40;99.90;;;;;;6278698;22;20027;-73
2023/04/01 06:53:29;;;;;;;12.30;7.38;;;10.40;99.90;;;;;;6304441;22;20018;-73
2023/04/01 06:56:07;;;;;;;13.77;7.35;;;10.40;99.90;;;;;;6304179;22;20294;-73
2023/04/01 06:58:41;;;;;;;15.23;9.23;;;10.40;99.90;;;;;;6304412;22;20389;-73
2023/04/01 07:01:16;;;;;;;14.32;8.98;;;10.40;99.90;;;;;;6304015;22;20014;-73
2023/04/01 07:03:52;;;;;;;16.70;8.65;;;10.50;99.90;;;;;;6304169;22;20122;-75
2023/04/01 07:07:00;;;;;;;13.63;9.23;;;10.50;99.90;;;;;;6304137;22;20025;-74
2023/04/01 07:09:37;;;;;;;14.93;9.38;;;10.50;99.90;;;;;;6247194;22;20054;-75
2023/04/01 07:12:32;;;;;;;15.77;9.60;;;10.50;99.90;;;;;;6332168;22;20022;-75
2023/04/01 07:15:10;;;;;;;14.90;9.77;;;10.50;99.90;;;;;;6311282;22;20023;-74
2023/04/01 07:17:38;;;;;;;15.00;8.77;;;10.50;99.90;;;;;;6332232;22;20011;-74
2023/04/01 07:20:14;;;;;;;14.82;9.18;;;10.50;99.90;;;;;;6304110;22;20014;-73
2023/04/01 07:22:49;;;;;;;14.98;9.38;;;10.50;99.90;;;;;;6304245;22;20398;-74
2023/04/01 07:25:33;;;;;;;14.52;8.63;;;10.50;99.90;;;;;;6304000;22;20025;-74
2023/04/01 07:28:06;;;;;;;13.15;8.55;;;10.50;99.90;;;;;;6303863;22;20026;-75
2023/04/01 07:31:16;;;;;;;12.52;8.65;;;10.50;99.90;;;;;;6278890;22;20198;-75
2023/04/01 07:34:17;;;;;;;13.82;8.15;;;10.50;99.90;;;;;;6307861;22;20106;-75
2023/04/01 07:36:48;;;;;;;12.57;8.00;;;10.60;99.90;;;;;;6284236;22;20418;-68
2023/04/01 07:39:51;;;;;;;11.73;8.13;;;10.60;99.90;;;;;;6303230;22;20014;-75
2023/04/01 07:42:29;;;;;;;12.05;7.97;;;10.50;99.90;;;;;;6304728;22;20018;-73
2023/04/01 07:45:22;;;;;;;14.40;7.68;;;10.60;99.90;;;;;;6305526;22;20085;-72
2023/04/01 07:48:13;;;;;;;10.55;7.20;;;10.60;99.90;;;;;;6305633;22;20060;-73
2023/04/01 07:51:23;;;;;;;9.35;5.95;;;10.60;99.90;;;;;;6334056;22;20402;-73
2023/04/01 07:53:54;;;;;;;12.05;7.32;;;10.60;99.90;;;;;;6237284;23;20462;-74
2023/04/01 07:56:41;;;;;;;11.25;7.82;;;10.60;99.90;;;;;;6237453;23;20020;-71
2023/04/01 07:59:47;;;;;;;8.70;6.30;;;10.60;99.90;;;;;;6298676;22;20429;-69
2023/04/01 08:02:13;;;;;;;12.15;6.07;;;10.60;99.90;;;;;;6333692;22;20057;-71
2023/04/01 08:05:00;;;;;;;9.68;6.22;;;10.60;99.90;;;;;;6305432;22;20019;-71
2023/04/01 08:07:38;;;;;;;10.15;6.18;;;10.60;99.90;;;;;;6333724;22;20089;-71
2023/04/01 08:10:26;;;;;;;14.75;7.15;;;10.60;99.90;;;;;;6334117;22;20015;-71
2023/04/01 08:13:10;;;;;;;9.95;6.10;;;10.70;99.90;;;;;;6306395;22;20019;-71
2023/04/01 08:15:46;;;;;;;9.43;5.45;;;10.60;99.90;;;;;;6334136;22;20019;-73
2023/04/01 08:18:38;;;;;;;9.45;5.78;;;10.70;99.90;;;;;;6306557;22;20453;-71
2023/04/01 08:21:34;;;;;;;9.10;6.38;;;10.80;99.90;;;;;;6329326;22;20011;-70
2023/04/01 08:24:25;;;;;;;9.60;6.00;;;10.70;99.90;;;;;;6306429;22;20486;-71
2023/04/01 08:26:56;;;;;;;9.90;5.65;;;10.70;99.90;;;;;;6306436;22;20033;-72
2023/04/01 08:29:31;;;;;;;10.38;6.28;;;10.80;99.90;;;;;;6306887;22;20021;-73
2023/04/01 08:32:17;;;;;;;10.18;6.07;;;10.70;99.90;;;;;;6334645;22;20023;-74
2023/04/01 08:34:47;;;;;;;8.35;5.43;;;10.80;99.90;;;;;;6307020;22;20080;-94
2023/04/01 08:37:28;;;;;;;7.25;5.25;;;10.80;99.90;;;;;;6309039;22;20045;-77
2023/04/01 08:40:01;;;;;;;5.40;3.85;;;10.80;99.90;;;;;;6334072;22;20433;-76
2023/04/01 08:42:48;;;;;;;5.18;3.50;;;10.90;99.90;;;;;;6305858;22;20053;-77
2023/04/01 08:45:39;;;;;;;4.47;3.33;;;10.90;99.90;;;;;;6332743;22;20097;-77
2023/04/01 08:48:29;;;;;;;4.60;3.83;;;10.90;99.90;;;;;;6306039;22;20061;-74
2023/04/01 08:51:26;;;;;;;4.22;3.03;;;10.90;99.90;;;;;;6333935;22;20101;-75
2023/04/01 08:54:21;;;;;;;4.55;3.33;;;10.90;99.90;;;;;;6306785;22;20438;-76
2023/04/01 08:57:05;;;;;;;4.13;3.15;;;10.90;99.90;;;;;;6306071;22;20030;-76
2023/04/01 08:59:47;;;;;;;5.28;3.15;;;11.00;99.90;;;;;;6334376;22;20022;-75
2023/04/01 09:02:28;;;;;;;4.65;3.22;;;11.00;99.90;;;;;;6334335;22;20036;-74
2023/04/01 09:05:33;;;;;;;4.43;2.70;;;11.00;99.90;;;;;;6332663;22;20289;-74
2023/04/01 09:08:31;;;;;;;2.85;2.25;;;11.10;99.90;;;;;;6305980;22;20169;-75
2023/04/01 09:11:11;;;;;;;2.17;1.98;;;11.10;99.90;;;;;;6285562;22;20106;-75
2023/04/01 09:14:27;;;;;;;2.20;1.85;;;11.10;99.90;;;;;;6333598;22;20089;-75
2023/04/01 09:17:16;;;;;;;2.30;2.10;;;11.20;99.90;;;;;;6236880;23;20035;-75
2023/04/01 09:20:08;;;;;;;2.58;2.35;;;11.10;99.90;;;;;;6327797;22;20029;-74
2023/04/01 09:22:53;;;;;;;2.40;1.90;;;11.20;99.90;;;;;;6295952;22;20023;-70
2023/04/01 09:25:51;;;;;;;3.03;2.72;;;11.30;99.90;;;;;;6331372;22;20386;-69
2023/04/01 09:28:29;;;;;;;3.05;2.25;;;11.30;99.90;;;;;;6332796;22;20015;-69
2023/04/01 09:31:02;;;;;;;3.15;2.72;;;11.40;99.90;;;;;;6333969;22;20011;-70
2023/04/01 09:33:37;;;;;;;4.85;3.10;;;11.40;99.90;;;;;;6333836;22;20021;-75
2023/04/01 09:36:16;;;;;;;5.13;3.10;;;11.50;99.90;;;;;;6305640;22;20444;-72
2023/04/01 09:38:59;;;;;;;5.50;3.72;;;11.50;99.90;;;;;;6305650;22;20049;-73
2023/04/01 09:41:31;;;;;;;;;;;11.50;99.90;;;;;;6306188;22;20442;-73
2023/04/01 09:44:02;;;;;;;5.63;4.30;;;11.50;99.90;;;;;;6305296;22;20512;-73
2023/04/01 09:46:37;;;;;;;5.18;3.97;;;11.50;99.90;;;;;;6333472;22;20045;-71
2023/04/01 09:49:20;;;;;;;5.57;4.50;;;11.50;99.90;;;;;;6333202;22;20015;-73
2023/04/01 09:52:12;;;;;;;7.45;4.53;;;11.50;99.90;;;;;;6305329;22;20013;-73
2023/04/01 09:54:56;;;;;;;5.25;3.88;;;11.60;99.90;;;;;;6304915;22;20046;-74
2023/04/01 09:57:34;;;;;;;5.53;3.88;;;11.50;99.90;;;;;;6305340;22;20540;-74
2023/04/01 10:00:15;;;;;;;5.30;3.97;;;11.50;99.90;;;;;;6333444;22;20015;-74
2023/04/01 10:02:47;;;;;;;5.20;4.03;;;11.50;99.90;;;;;;6333010;22;20076;-74
2023/04/01 10:05:28;;;;;;;7.95;4.75;;;11.50;99.90;;;;;;6304698;22;20424;-73
2023/04/01 10:07:59;;;;;;;5.30;4.45;;;11.50;99.90;;;;;;6333039;22;20384;-74
2023/04/01 10:10:56;;;;;;;7.10;4.53;;;11.60;99.90;;;;;;6305051;22;20025;-74
2023/04/01 10:14:00;;;;;;;5.05;4.00;;;11.60;99.90;;;;;;6304958;22;20482;-74
2023/04/01 10:16:43;;;;;;;7.07;4.40;;;11.60;99.90;;;;;;6305040;22;20411;-75
2023/04/01 10:19:29;;;;;;;6.47;4.35;;;11.60;99.90;;;;;;6305096;22;20414;-75
2023/04/01 10:22:13;;;;;;;5.50;4.20;;;11.60;99.90;;;;;;6304546;22;20055;-75
2023/04/01 10:24:50;;;;;;;6.35;4.28;;;11.60;99.90;;;;;;6304964;22;20026;-74
2023/04/01 10:27:27;;;;;;;6.28;4.72;;;11.70;99.90;;;;;;6333264;22;20375;-74
2023/04/01 10:30:15;;;;;;;5.80;4.55;;;11.80;99.90;;;;;;6304903;22;20014;-71
2023/04/01 10:33:20;;;;;;;4.78;4.20;;;11.80;99.90;;;;;;6304607;22;20038;-71
2023/04/01 10:36:04;;;;;;;5.57;4.45;;;11.90;99.90;;;;;;6332834;22;20014;-75
2023/04/01 10:38:32;;;;;;;5.30;4.30;;;11.90;99.90;;;;;;6304640;22;20019;-76
2023/04/01 10:41:46;;;;;;;5.35;4.25;;;11.90;99.90;;;;;;6304903;22;20023;-71
2023/04/01 10:44:31;;;;;;;5.13;4.30;;;11.90;99.90;;;;;;6234257;22;20014;-75
2023/04/01 10:47:31;;;;;;;4.95;4.00;;;12.00;99.90;;;;;;6305063;22;20019;-76
2023/04/01 10:50:06;;;;;;;7.07;4.35;;;12.00;99.90;;;;;;6332720;22;20056;-76
2023/04/01 10:53:05;;;;;;;5.80;4.45;;;12.00;99.90;;;;;;6305678;22;20167;-75
2023/04/01 10:56:08;;;;;;;5.50;4.60;;;12.00;99.90;;;;;;6332461;22;20080;-76
2023/04/01 10:58:43;;;;;;;5.20;3.95;;;12.10;99.90;;;;;;6304183;22;20033;-76
2023/04/01 11:01:50;;;;;;;6.90;4.88;;;12.10;99.90;;;;;;6304589;22;20061;-76
2023/04/01 11:04:57;;;;;;;7.50;4.43;;;12.20;99.90;;;;;;6304487;22;20379;-75
2023/04/01 11:08:00;;;;;;;5.38;4.30;;;12.20;99.90;;;;;;6272938;22;20019;-76
2023/04/01 11:10:57;;;;;;;4.63;3.88;;;12.20;99.90;;;;;;6304966;22;20053;-76
2023/04/01 11:13:45;;;;;;;5.07;4.20;;;12.20;99.90;;;;;;6304790;22;20091;-76
2023/04/01 11:16:13;;;;;;;6.10;4.15;;;12.20;99.90;;;;;;6332670;22;20813;-75
2023/04/01 11:19:07;;;;;;;6.60;4.63;;;12.20;99.90;;;;;;6304653;22;20472;-76
2023/04/01 11:21:33;;;;;;;8.05;4.50;;;12.20;99.90;;;;;;6303940;22;20017;-76
2023/04/01 11:24:07;;;;;;;7.60;4.97;;;12.30;99.90;;;;;;6305103;22;20019;-76
2023/04/01 11:26:52;;;;;;;6.32;4.47;;;12.30;99.90;;;;;;6332395;22;20046;-76
2023/04/01 11:29:39;;;;;;;7.65;5.60;;;12.30;99.90;;;;;;6332611;22;20014;-76
2023/04/01 11:32:10;;;;;;;8.77;6.18;;;12.30;99.90;;;;;;6332894;22;20040;-77
2023/04/01 11:34:48;;;;;;;12.80;9.25;;;12.20;99.90;;;;;;6304337;22;20018;-75
2023/04/01 11:37:33;;;;;;;9.23;7.45;;;12.00;99.90;;;;;;6304937;22;20086;-76
2023/04/01 11:40:28;;;;;;;5.00;4.50;;;11.80;99.90;;;;;;6304899;22;20018;-76
2023/04/01 11:43:26;;;;;;;6.53;4.50;;;11.70;99.90;;;;;;6265925;22;20019;-76
2023/04/01 11:46:11;;;;;;;6.05;5.07;;;11.60;99.90;;;;;;6304578;22;20033;-76
2023/04/01 11:48:59;;;;;;;5.03;4.20;;;11.60;99.90;;;;;;6278318;22;20029;-74
2023/04/01 11:51:51;;;;;;;4.95;4.28;;;11.60;99.90;;;;;;6332580;22;20026;-75
2023/04/01 11:54:32;;;;;;;5.00;4.50;;;11.50;99.90;;;;;;6304313;22;20014;-75
2023/04/01 11:57:10;;;;;;;4.95;4.40;;;11.50;99.90;;;;;;6304635;22;20477;-76
2023/04/01 12:00:02;;;;;;;5.05;4.55;;;11.50;99.90;;;;;;6304472;22;20026;-76
2023/04/01 12:02:42;;;;;;;3.95;3.50;;;11.40;99.90;;;;;;6304537;22;20394;-76
2023/04/01 12:05:27;;;;;;;4.22;3.83;;;11.30;99.90;;;;;;6304778;22;20641;-75
2023/04/01 12:07:59;;;;;;;3.42;3.13;;;11.20;99.90;;;;;;6333033;22;20015;-75
2023/04/01 12:11:08;;;;;;;3.80;3.20;;;11.20;99.90;;;;;;6304816;22;20091;-75
2023/04/01 12:13:45;;;;;;;3.63;3.33;;;11.20;99.90;;;;;;6318077;22;20285;-76
2023/04/01 12:16:19;;;;;;;3.72;3.35;;;11.10;99.90;;;;;;6304653;22;20030;-76
2023/04/01 12:19:01;;;;;;;5.03;3.00;;;11.10;99.90;;;;;;6278637;22;20019;-76
2023/04/01 12:21:52;;;;;;;3.92;3.53;;;11.00;99.90;;;;;;6304935;22;20090;-76
2023/04/01 12:25:06;;;;;;;3.28;3.00;;;11.00;99.90;;;;;;6304789;22;20350;-75
2023/04/01 12:27:50;;;;;;;3.25;2.95;;;11.00;99.90;;;;;;6312717;22;20018;-75
2023/04/01 12:30:30;;;;;;;3.85;3.28;;;11.00;99.90;;;;;;6306846;22;20050;-75
2023/04/01 12:33:18;;;;;;;3.35;3.03;;;10.90;99.90;;;;;;6306463;22;20085;-75
2023/04/01 12:36:21;;;;;;;3.45;3.15;;;10.90;99.90;;;;;;6307135;22;20087;-75
2023/04/01 12:38:59;;;;;;;3.63;3.03;;;10.90;99.90;;;;;;6306545;22;20014;-76
2023/04/01 12:41:31;;;;;;;3.55;3.00;;;10.90;99.90;;;;;;6306322;22;20022;-74
2023/04/01 12:44:28;;;;;;;3.25;2.70;;;10.90;99.90;;;;;;6333696;22;20449;-74
2023/04/01 12:47:33;;;;;;;4.20;3.45;;;11.00;99.90;;;;;;6334125;22;20081;-76
2023/04/01 12:50:10;;;;;;;3.65;3.20;;;10.90;99.90;;;;;;6333573;22;20061;-76
2023/04/01 12:53:03;;;;;;;3.60;3.30;;;10.80;99.90;;;;;;6333679;22;20054;-76
2023/04/01 12:55:52;;;;;;;3.90;2.67;;;10.90;99.90;;;;;;6334004;22;20079;-75
2023/04/01 12:58:36;;;;;;;3.58;3.28;;;10.80;99.90;;;;;;6306192;22;20015;-75
2023/04/01 13:01:46;;;;;;;3.25;2.95;;;10.80;99.90;;;;;;6307195;22;20505;-76
2023/04/01 13:04:33;;;;;;;3.13;2.85;;;10.80;99.90;;;;;;6303404;22;20018;-71
2023/04/01 13:07:21;;;;;;;3.53;3.22;;;10.80;99.90;;;;;;6306270;22;20045;-77
2023/04/01 13:10:08;;;;;;;4.70;3.95;;;10.80;99.90;;;;;;6308072;22;20023;-77
2023/04/01 13:12:47;;;;;;;3.95;3.47;;;10.90;99.90;;;;;;6306205;22;20015;-78
2023/04/01 13:15:32;;;;;;;3.15;2.85;;;10.80;99.90;;;;;;6333782;22;20050;-78
2023/04/01 13:18:05;;;;;;;3.42;3.13;;;10.80;99.90;;;;;;6305832;22;20486;-77
2023/04/01 13:20:42;;;;;;;2.95;2.72;;;10.80;99.90;;;;;;6333731;22;20022;-75
2023/04/01 13:23:14;;;;;;;3.58;3.28;;;10.90;99.90;;;;;;6306357;22;20019;-70
2023/04/01 13:25:51;;;;;;;4.18;3.40;;;10.80;99.90;;;;;;6333761;22;20022;-72
2023/04/01 13:28:30;;;;;;;3.55;3.25;;;10.80;99.90;;;;;;6333959;22;20071;-78
2023/04/01 13:31:14;;;;;;;3.72;3.42;;;10.80;99.90;;;;;;6333767;22;20018;-77
2023/04/01 13:33:52;;;;;;;3.67;3.38;;;10.70;99.90;;;;;;6333322;22;20445;-75
2023/04/01 13:36:48;;;;;;;3.60;3.25;;;10.70;99.90;;;;;;6333660;22;20022;-78